Time;durP1;ratioP1;P1;durP2;ratioP2;P2;SDS_P1;SDS_P2;PMS_P1;PMS_P2;Temp;Humidity;BMP_temperature;BMP_pressure;BME280_temperature;BME280_humidity;BME280_pressure;Samples;Min_cycle;Max_cycle;Signal;HPM_P1;HPM_P2
2022/09/07 00:01:06;;;;;;;4.22;2.33;;;;;;;18.70;100.00;98513.00;5032309;28;20025;-60
2022/09/07 00:03:32;;;;;;;5.97;2.10;;;;;;;18.68;100.00;98515.19;5030811;28;20021;-60
2022/09/07 00:05:58;;;;;;;7.05;2.03;;;;;;;18.66;100.00;98517.38;5027129;28;20388;-64
2022/09/07 00:08:26;;;;;;;9.05;2.00;;;;;;;18.78;100.00;98498.84;5030412;28;20028;-60
2022/09/07 00:10:59;;;;;;;6.95;2.28;;;;;;;18.80;100.00;98511.19;5027118;28;20021;-60
2022/09/07 00:13:28;;;;;;;5.97;2.05;;;;;;;18.80;100.00;98504.91;5032605;28;20389;-60
2022/09/07 00:15:53;;;;;;;4.47;1.60;;;;;;;18.69;100.00;98489.44;5039169;22;20040;-70
2022/09/07 00:18:19;;;;;;;3.97;1.95;;;;;;;18.93;100.00;98490.72;5041008;28;20037;-70
2022/09/07 00:20:44;;;;;;;10.43;2.00;;;;;;;19.00;100.00;98491.31;5044438;28;20051;-70
2022/09/07 00:23:10;;;;;;;3.97;1.92;;;;;;;18.93;100.00;98478.94;5053543;28;20166;-70
2022/09/07 00:25:40;;;;;;;5.75;2.20;;;;;;;18.97;100.00;98485.56;5054496;28;20078;-72
2022/09/07 00:28:06;;;;;;;6.13;1.73;;;;;;;18.89;100.00;98470.44;5050041;28;20080;-70
2022/09/07 00:30:33;;;;;;;7.20;2.22;;;;;;;18.88;100.00;98471.50;5056323;28;20049;-70
2022/09/07 00:32:59;;;;;;;5.07;2.80;;;;;;;18.78;100.00;98482.41;5036603;28;20033;-71
2022/09/07 00:35:24;;;;;;;10.45;2.22;;;;;;;18.67;100.00;98458.75;5043986;28;20029;-72
2022/09/07 00:37:49;;;;;;;10.07;1.92;;;;;;;18.78;100.00;98479.66;5049474;28;20025;-70
2022/09/07 00:40:15;;;;;;;5.07;2.15;;;;;;;18.89;100.00;98477.81;5049768;28;20033;-70
2022/09/07 00:42:40;;;;;;;3.95;1.83;;;;;;;18.99;100.00;98477.84;5034424;28;20090;-70
2022/09/07 00:45:18;;;;;;;3.47;1.45;;;;;;;18.96;100.00;98473.72;5050226;28;20371;-70
2022/09/07 00:47:51;;;;;;;5.97;1.90;;;;;;;18.90;100.00;98444.66;5046403;28;20033;-70
2022/09/07 00:50:28;;;;;;;4.60;1.80;;;;;;;18.95;100.00;98449.34;5048835;28;20062;-72
2022/09/07 00:53:01;;;;;;;3.78;1.60;;;;;;;18.90;100.00;98425.47;5032396;28;20024;-71
2022/09/07 00:55:28;;;;;;;5.70;1.88;;;;;;;18.87;100.00;98447.94;5055644;28;20036;-72
2022/09/07 00:57:54;;;;;;;6.20;2.38;;;;;;;18.75;100.00;98433.59;5058288;28;20031;-71
2022/09/07 01:00:20;;;;;;;6.93;1.75;;;;;;;18.63;100.00;98422.84;5037157;28;20040;-73
2022/09/07 01:02:49;;;;;;;6.82;2.10;;;;;;;18.66;100.00;98440.66;5031353;28;20028;-72
2022/09/07 01:05:40;;;;;;;6.03;1.92;;;;;;;18.50;100.00;98435.09;5044348;28;20116;-71
2022/09/07 01:08:08;;;;;;;4.30;2.00;;;;;;;18.43;100.00;98431.75;5046472;28;20536;-71
2022/09/07 01:10:34;;;;;;;4.45;2.10;;;;;;;18.34;100.00;98425.94;5047817;28;20025;-70
2022/09/07 01:13:00;;;;;;;6.25;2.00;;;;;;;18.26;100.00;98414.63;5044773;28;20035;-71
2022/09/07 01:16:05;;;;;;;4.88;2.28;;;;;;;18.17;100.00;98423.31;5046020;28;20028;-70
2022/09/07 01:18:59;;;;;;;4.22;1.95;;;;;;;17.96;100.00;98432.47;5024184;28;20382;-70
2022/09/07 01:21:46;;;;;;;5.80;2.17;;;;;;;17.87;100.00;98426.66;5044435;28;20028;-71
2022/09/07 01:24:30;;;;;;;5.07;2.15;;;;;;;17.92;100.00;98434.91;5048440;28;20136;-71
2022/09/07 01:27:31;;;;;;;5.00;2.45;;;;;;;17.95;100.00;98422.63;5045111;28;20037;-72
2022/09/07 01:30:10;;;;;;;5.82;2.50;;;;;;;17.94;100.00;98426.41;5044601;28;20045;-71
2022/09/07 01:32:36;;;;;;;6.38;2.08;;;;;;;18.05;100.00;98424.59;5030761;28;20071;-71
2022/09/07 01:35:08;;;;;;;4.90;2.10;;;;;;;18.10;100.00;98421.91;5042026;28;20034;-71
2022/09/07 01:37:56;;;;;;;6.70;2.30;;;;;;;18.07;100.00;98445.16;5038071;28;20600;-71
2022/09/07 01:40:32;;;;;;;7.45;2.38;;;;;;;17.93;100.00;98441.22;5049974;28;20032;-71
2022/09/07 01:43:05;;;;;;;4.50;2.35;;;;;;;17.72;100.00;98449.19;5039218;28;20091;-71
2022/09/07 01:45:34;;;;;;;6.13;2.28;;;;;;;17.53;100.00;98454.19;5046994;28;20028;-71
2022/09/07 01:48:05;;;;;;;7.22;1.90;;;;;;;17.40;100.00;98437.38;5044694;28;20032;-71
2022/09/07 01:50:46;;;;;;;4.07;2.33;;;;;;;17.46;100.00;98453.56;5039474;28;20486;-71
2022/09/07 01:53:18;;;;;;;7.88;2.35;;;;;;;17.44;100.00;98442.03;5042228;28;20041;-70
2022/09/07 01:55:51;;;;;;;3.30;1.83;;;;;;;17.58;100.00;98460.78;5051130;28;20116;-72
2022/09/07 01:58:35;;;;;;;4.85;1.90;;;;;;;17.70;100.00;98461.47;5044232;28;20021;-71
2022/09/07 02:01:07;;;;;;;4.97;2.00;;;;;;;17.86;100.00;98451.53;5037022;28;20483;-71
2022/09/07 02:03:54;;;;;;;4.43;1.77;;;;;;;18.17;100.00;98456.19;5048465;28;20024;-71
2022/09/07 02:06:25;;;;;;;5.80;2.33;;;;;;;18.31;100.00;98450.25;5048508;28;20036;-71
2022/09/07 02:08:57;;;;;;;5.65;1.95;;;;;;;18.28;100.00;98467.22;5038468;28;20068;-71
2022/09/07 02:11:39;;;;;;;3.85;2.10;;;;;;;18.10;100.00;98458.34;5046774;28;20107;-70
2022/09/07 02:14:08;;;;;;;4.20;2.17;;;;;;;18.00;100.00;98460.13;5062783;28;20039;-70
2022/09/07 02:16:39;;;;;;;7.95;2.75;;;;;;;17.88;100.00;98461.13;5045060;28;20443;-71
2022/09/07 02:19:09;;;;;;;2.53;2.00;;;;;;;17.82;100.00;98453.16;5047465;28;20036;-70
2022/09/07 02:21:38;;;;;;;4.78;2.10;;;;;;;17.77;100.00;98447.59;5044992;28;20021;-70
2022/09/07 02:24:09;;;;;;;4.65;2.20;;;;;;;17.90;100.00;98469.09;5042677;28;20224;-71
2022/09/07 02:26:38;;;;;;;4.60;2.08;;;;;;;17.87;100.00;98454.03;5046181;28;20517;-70
2022/09/07 02:29:04;;;;;;;9.13;2.53;;;;;;;17.96;100.00;98474.34;5049882;28;20152;-71
2022/09/07 02:31:30;;;;;;;5.47;2.25;;;;;;;18.00;100.00;98465.59;5040255;28;20096;-71
2022/09/07 02:33:55;;;;;;;3.85;2.00;;;;;;;18.07;100.00;98482.66;5043391;28;20496;-70
2022/09/07 02:36:25;;;;;;;4.10;1.80;;;;;;;18.09;100.00;98491.44;5043302;28;20036;-71
2022/09/07 02:38:51;;;;;;;5.75;2.00;;;;;;;18.02;100.00;98485.34;5042031;28;20025;-71
2022/09/07 02:41:44;;;;;;;10.23;2.42;;;;;;;18.04;100.00;98533.28;5047113;28;20025;-71
2022/09/07 02:44:19;;;;;;;5.43;2.13;;;;;;;17.69;100.00;98529.06;5048264;28;20051;-70
2022/09/07 02:46:56;;;;;;;3.55;2.20;;;;;;;17.58;100.00;98540.97;5044369;28;20025;-71
2022/09/07 02:49:37;;;;;;;5.82;2.28;;;;;;;17.43;100.00;98535.31;5040777;28;20516;-71
2022/09/07 02:52:33;;;;;;;3.08;2.00;;;;;;;17.43;100.00;98544.34;5048333;28;20033;-71
2022/09/07 02:55:36;;;;;;;8.40;2.38;;;;;;;17.55;100.00;98535.16;5011957;28;20518;-71
2022/09/07 02:58:40;;;;;;;5.35;2.15;;;;;;;17.90;100.00;98532.88;5036777;28;20740;-71
2022/09/07 03:01:24;;;;;;;7.03;2.40;;;;;;;18.05;100.00;98526.72;5043460;28;20021;-71
2022/09/07 03:03:54;;;;;;;7.07;2.30;;;;;;;17.83;100.00;98521.28;5055699;28;20512;-71
2022/09/07 03:06:29;;;;;;;8.65;2.45;;;;;;;17.65;100.00;98510.66;5045978;28;20040;-71
2022/09/07 03:08:58;;;;;;;6.53;2.75;;;;;;;17.64;100.00;98519.97;5044852;28;20020;-71
2022/09/07 03:11:24;;;;;;;4.85;2.47;;;;;;;17.57;100.00;98525.63;5036683;28;20032;-70
2022/09/07 03:13:49;;;;;;;4.65;2.40;;;;;;;17.71;100.00;98517.84;5028398;28;20040;-71
2022/09/07 03:16:15;;;;;;;5.43;2.60;;;;;;;17.59;100.00;98525.38;5042362;28;20118;-71
2022/09/07 03:18:42;;;;;;;6.30;2.50;;;;;;;17.53;100.00;98521.75;5042366;28;20111;-71
2022/09/07 03:21:07;;;;;;;3.95;2.40;;;;;;;17.67;100.00;98514.78;5027852;28;20021;-71
2022/09/07 03:23:33;;;;;;;4.43;2.63;;;;;;;17.73;100.00;98535.66;5028034;28;20028;-70
2022/09/07 03:25:58;;;;;;;7.18;3.05;;;;;;;17.71;100.00;98528.78;5042081;28;20470;-70
2022/09/07 03:28:23;;;;;;;5.85;2.63;;;;;;;17.86;100.00;98530.91;5044948;28;20505;-70
2022/09/07 03:30:49;;;;;;;6.93;2.60;;;;;;;17.66;100.00;98531.47;5045031;28;20052;-70
2022/09/07 03:33:15;;;;;;;8.77;2.45;;;;;;;17.81;100.00;98528.94;5041658;28;20036;-70
2022/09/07 03:35:45;;;;;;;3.90;2.55;;;;;;;17.90;100.00;98516.44;5041088;28;20029;-70
2022/09/07 03:38:10;;;;;;;6.63;2.70;;;;;;;17.78;100.00;98507.53;5050187;28;20776;-71
2022/09/07 03:40:36;;;;;;;7.45;3.08;;;;;;;17.84;100.00;98512.00;5048531;28;20116;-72
2022/09/07 03:43:01;;;;;;;6.93;2.53;;;;;;;17.63;100.00;98510.94;5057314;28;20037;-71
2022/09/07 03:45:27;;;;;;;6.72;2.88;;;;;;;17.57;100.00;98511.94;5059694;28;20025;-70
2022/09/07 03:47:52;;;;;;;9.43;2.83;;;;;;;17.47;100.00;98498.97;5069883;28;20056;-71
2022/09/07 03:50:18;;;;;;;7.28;2.75;;;;;;;17.48;100.00;98499.81;5068922;28;20044;-70
2022/09/07 03:52:43;;;;;;;5.00;2.60;;;;;;;17.37;100.00;98506.22;5064577;28;20033;-71
2022/09/07 03:55:08;;;;;;;4.47;2.35;;;;;;;17.22;100.00;98513.16;5056041;28;20104;-71
2022/09/07 03:57:34;;;;;;;9.65;2.78;;;;;;;17.16;100.00;98514.19;5073525;28;20028;-71
2022/09/07 03:59:59;;;;;;;7.60;2.30;;;;;;;17.07;100.00;98508.31;5073064;28;20020;-70
2022/09/07 04:02:24;;;;;;;4.22;2.40;;;;;;;16.93;100.00;98517.16;5064290;28;20045;-71
2022/09/07 04:04:50;;;;;;;9.50;3.10;;;;;;;16.80;100.00;98515.59;5063997;28;20025;-70
2022/09/07 04:07:16;;;;;;;9.15;3.03;;;;;;;16.72;100.00;98505.88;5063905;28;20534;-70
2022/09/07 04:09:42;;;;;;;7.57;2.90;;;;;;;16.41;100.00;98482.75;5061563;28;20080;-70
2022/09/07 04:12:07;;;;;;;5.03;2.50;;;;;;;16.62;100.00;98517.47;5062912;28;20025;-71
2022/09/07 04:14:32;;;;;;;3.55;2.42;;;;;;;16.54;100.00;98504.25;5038061;28;20075;-70
2022/09/07 04:16:58;;;;;;;4.55;2.50;;;;;;;16.61;100.00;98509.53;5046790;28;20025;-76
2022/09/07 04:19:23;;;;;;;7.75;2.63;;;;;;;16.58;100.00;98520.94;5049168;28;20029;-75
2022/09/07 04:21:48;;;;;;;9.38;3.15;;;;;;;16.54;100.00;98520.63;5024254;28;20389;-72
2022/09/07 04:24:15;;;;;;;6.47;2.90;;;;;;;16.47;100.00;98514.50;5047687;28;20024;-74
2022/09/07 04:26:44;;;;;;;9.80;3.40;;;;;;;16.44;100.00;98526.75;5057322;28;20106;-72
2022/09/07 04:29:10;;;;;;;6.30;3.00;;;;;;;16.43;100.00;98525.09;5063009;28;20082;-73
2022/09/07 04:31:36;;;;;;;6.03;2.88;;;;;;;16.47;100.00;98532.78;5052400;28;20474;-75
2022/09/07 04:34:04;;;;;;;9.10;3.78;;;;;;;16.43;100.00;98533.31;5041211;28;20091;-74
2022/09/07 04:36:29;;;;;;;8.73;3.40;;;;;;;16.35;100.00;98528.25;5045377;28;20437;-73
2022/09/07 04:38:58;;;;;;;7.07;3.60;;;;;;;16.40;100.00;98536.53;5048452;28;20025;-75
2022/09/07 04:41:24;;;;;;;4.78;2.88;;;;;;;16.37;100.00;98530.72;5048903;28;20047;-75
2022/09/07 04:43:53;;;;;;;5.05;2.95;;;;;;;16.42;100.00;98536.25;5046982;28;20547;-76
2022/09/07 04:46:24;;;;;;;12.15;3.15;;;;;;;16.36;100.00;98529.06;5035892;28;20131;-74
2022/09/07 04:48:51;;;;;;;8.55;3.17;;;;;;;16.36;100.00;98529.91;5043574;28;20110;-69
2022/09/07 04:51:17;;;;;;;8.30;3.00;;;;;;;16.36;100.00;98537.25;5045990;28;20554;-68
2022/09/07 04:53:42;;;;;;;5.43;3.03;;;;;;;16.34;100.00;98520.28;5045159;28;20025;-71
2022/09/07 04:56:08;;;;;;;4.90;3.20;;;;;;;16.36;100.00;98529.06;5051934;28;20039;-70
2022/09/07 04:58:34;;;;;;;5.93;3.08;;;;;;;16.35;100.00;98525.53;5055869;28;20083;-74
2022/09/07 05:01:04;;;;;;;4.47;2.70;;;;;;;16.36;100.00;98521.69;5046312;28;20059;-72
2022/09/07 05:03:32;;;;;;;8.43;2.78;;;;;;;16.43;100.00;98516.91;5035950;28;20039;-73
2022/09/07 05:06:05;;;;;;;4.22;2.63;;;;;;;16.40;100.00;98509.22;5034654;28;20862;-69
2022/09/07 05:08:35;;;;;;;6.20;2.70;;;;;;;16.43;100.00;98519.66;5048628;28;20059;-73
2022/09/07 05:11:00;;;;;;;6.93;2.72;;;;;;;16.50;100.00;98521.38;5036949;28;20028;-71
2022/09/07 05:13:29;;;;;;;6.82;2.85;;;;;;;16.48;100.00;98504.41;5047075;28;20028;-72
2022/09/07 05:15:54;;;;;;;5.88;2.70;;;;;;;16.69;100.00;98516.47;5045746;28;20024;-72
2022/09/07 05:18:20;;;;;;;5.75;2.78;;;;;;;16.64;100.00;98509.03;5048315;28;20036;-72
2022/09/07 05:20:45;;;;;;;4.60;2.83;;;;;;;16.71;100.00;98530.72;5038968;28;20083;-72
2022/09/07 05:23:10;;;;;;;6.30;3.03;;;;;;;16.66;100.00;98523.25;5026615;28;20049;-72
2022/09/07 05:25:42;;;;;;;7.68;2.92;;;;;;;16.80;100.00;98538.28;5047511;28;20031;-72
2022/09/07 05:28:08;;;;;;;8.55;2.90;;;;;;;16.90;100.00;98548.53;5049133;28;20033;-71
2022/09/07 05:30:33;;;;;;;9.48;2.92;;;;;;;17.56;100.00;98548.59;5044884;28;20031;-72
2022/09/07 05:32:59;;;;;;;6.60;2.50;;;;;;;18.81;100.00;98547.66;5037469;28;20041;-72
2022/09/07 05:35:24;;;;;;;14.80;3.05;;;;;;;19.30;100.00;98547.41;5043940;28;20027;-71
2022/09/07 05:37:49;;;;;;;5.82;2.55;;;;;;;20.07;97.77;98544.97;5037956;28;20037;-72
2022/09/07 05:40:15;;;;;;;4.00;2.20;;;;;;;20.93;87.96;98555.22;5041979;28;20772;-72
2022/09/07 05:42:40;;;;;;;7.28;2.58;;;;;;;21.52;81.46;98561.13;5035434;28;20581;-72
2022/09/07 05:45:06;;;;;;;5.88;2.70;;;;;;;22.35;74.67;98563.22;5042207;28;20035;-71
2022/09/07 05:47:32;;;;;;;5.80;2.80;;;;;;;23.23;69.10;98555.00;5039524;28;20041;-71
2022/09/07 05:49:57;;;;;;;4.70;2.17;;;;;;;23.73;66.39;98552.78;5048995;28;20387;-73
2022/09/07 05:52:22;;;;;;;7.25;2.85;;;;;;;24.39;64.19;98560.19;5050047;28;20386;-71
2022/09/07 05:54:48;;;;;;;8.13;2.95;;;;;;;24.74;60.91;98559.94;5043477;28;20041;-72
2022/09/07 05:57:14;;;;;;;6.05;2.67;;;;;;;25.33;60.28;98578.53;5038885;28;20386;-72
2022/09/07 05:59:39;;;;;;;12.85;2.72;;;;;;;25.81;57.52;98563.47;5041600;28;20108;-72
2022/09/07 06:02:05;;;;;;;8.77;3.30;;;;;;;26.26;56.16;98579.44;5046191;28;20032;-72
2022/09/07 06:04:30;;;;;;;10.52;3.05;;;;;;;26.62;54.83;98573.91;5039871;28;20497;-72
2022/09/07 06:06:56;;;;;;;9.50;2.40;;;;;;;27.71;52.33;98574.34;5037674;28;20033;-72
2022/09/07 06:09:21;;;;;;;7.25;2.60;;;;;;;27.84;50.85;98567.03;5043917;28;20028;-72
2022/09/07 06:11:46;;;;;;;5.90;2.47;;;;;;;28.52;49.94;98559.13;5028171;28;20470;-71
2022/09/07 06:14:11;;;;;;;10.00;3.00;;;;;;;28.45;49.52;98577.47;5038908;28;20053;-72
2022/09/07 06:16:37;;;;;;;7.20;2.78;;;;;;;28.67;48.54;98568.16;5039791;28;20090;-71
2022/09/07 06:19:07;;;;;;;9.73;2.85;;;;;;;29.58;46.75;98560.53;5042942;28;20054;-73
2022/09/07 06:21:36;;;;;;;7.82;2.40;;;;;;;29.83;45.64;98553.22;5038646;28;20352;-74
2022/09/07 06:24:02;;;;;;;9.65;2.58;;;;;;;30.67;43.85;98537.34;5037462;28;20411;-73
2022/09/07 06:26:28;;;;;;;5.30;2.00;;;;;;;31.76;42.21;98545.53;5040663;28;20562;-75
2022/09/07 06:28:54;;;;;;;4.72;2.20;;;;;;;31.82;41.97;98541.31;5039925;28;20021;-75
2022/09/07 06:31:22;;;;;;;4.80;1.90;;;;;;;31.22;42.70;98552.91;5045455;28;20021;-76
2022/09/07 06:33:49;;;;;;;5.68;2.40;;;;;;;30.88;43.34;98556.88;5028286;28;20025;-76
2022/09/07 06:36:19;;;;;;;6.50;2.28;;;;;;;30.00;44.92;98555.94;5042059;28;20037;-74
2022/09/07 06:38:45;;;;;;;7.40;2.47;;;;;;;28.49;48.02;98561.78;5044156;28;20025;-74
2022/09/07 06:41:17;;;;;;;5.97;2.10;;;;;;;27.60;50.64;98567.44;5041820;28;20082;-69
2022/09/07 06:43:43;;;;;;;3.58;1.83;;;;;;;29.44;46.70;98556.00;5045981;28;20048;-74
2022/09/07 06:46:09;;;;;;;7.20;2.00;;;;;;;30.95;43.37;98561.94;5043729;28;20112;-73
2022/09/07 06:48:35;;;;;;;4.07;2.40;;;;;;;31.90;41.57;98561.94;5035975;28;20531;-71
2022/09/07 06:51:03;;;;;;;3.97;2.08;;;;;;;29.61;45.37;98552.34;5044323;28;20024;-71
2022/09/07 06:53:36;;;;;;;7.60;2.00;;;;;;;26.89;51.83;98557.09;5041127;28;20120;-72
2022/09/07 06:56:06;;;;;;;5.25;1.77;;;;;;;25.65;55.94;98559.34;5040756;28;20121;-70
2022/09/07 06:58:32;;;;;;;6.07;2.30;;;;;;;25.63;56.47;98556.09;5042022;28;20040;-71
2022/09/07 07:00:57;;;;;;;9.43;2.20;;;;;;;25.93;56.11;98540.78;5040403;28;20036;-71
2022/09/07 07:03:23;;;;;;;6.38;2.45;;;;;;;28.74;49.33;98543.38;5043131;28;21783;-71
2022/09/07 07:05:53;;;;;;;4.78;2.13;;;;;;;31.71;42.85;98535.38;5038423;28;20033;-72
2022/09/07 07:08:21;;;;;;;4.80;1.42;;;;;;;34.01;38.14;98537.81;5041886;28;20033;-70
2022/09/07 07:10:47;;;;;;;6.32;1.65;;;;;;;36.23;34.38;98538.38;5046253;28;20029;-70
2022/09/07 07:13:12;;;;;;;4.53;1.42;;;;;;;38.19;31.13;98529.50;5039490;28;20043;-70
2022/09/07 07:15:38;;;;;;;4.45;1.73;;;;;;;36.46;33.42;98526.22;5040340;28;20025;-71
2022/09/07 07:18:03;;;;;;;4.22;1.60;;;;;;;35.90;33.91;98523.00;5052671;28;20418;-70
2022/09/07 07:20:28;;;;;;;6.63;1.55;;;;;;;36.50;33.04;98521.41;5048464;28;20120;-74
2022/09/07 07:22:54;;;;;;;4.32;1.42;;;;;;;34.79;35.96;98537.91;5039966;28;20060;-72
2022/09/07 07:25:20;;;;;;;3.22;1.05;;;;;;;34.24;36.54;98543.59;5039618;28;20124;-74
2022/09/07 07:27:46;;;;;;;5.70;1.70;;;;;;;34.01;36.22;98537.00;5022656;28;20028;-71
2022/09/07 07:30:12;;;;;;;4.88;1.60;;;;;;;33.96;37.20;98540.91;5030788;28;20445;-74
2022/09/07 07:32:38;;;;;;;5.00;1.50;;;;;;;35.59;34.58;98540.22;5040781;28;20025;-71
2022/09/07 07:35:06;;;;;;;5.63;1.58;;;;;;;34.98;34.94;98544.69;5041855;28;20033;-72
2022/09/07 07:37:31;;;;;;;7.53;1.48;;;;;;;35.25;34.35;98535.19;5046636;28;20032;-74
2022/09/07 07:39:56;;;;;;;4.60;1.30;;;;;;;36.45;32.75;98544.31;5044653;28;20124;-73
2022/09/07 07:42:22;;;;;;;5.70;1.27;;;;;;;35.93;33.41;98546.78;5044086;28;20052;-74
2022/09/07 07:44:48;;;;;;;5.35;1.63;;;;;;;35.49;34.32;98559.31;5043733;28;20279;-74
2022/09/07 07:47:13;;;;;;;9.65;1.63;;;;;;;36.31;33.27;98571.09;5041611;28;20025;-73
2022/09/07 07:49:38;;;;;;;6.67;1.50;;;;;;;35.01;34.70;98578.50;5035175;28;20725;-70
2022/09/07 07:52:05;;;;;;;4.00;1.40;;;;;;;34.99;35.00;98591.31;5034317;28;20371;-70
2022/09/07 07:54:32;;;;;;;3.63;1.13;;;;;;;34.35;35.30;98597.19;5039131;28;20040;-71
2022/09/07 07:56:58;;;;;;;3.87;1.33;;;;;;;33.97;36.51;98581.81;5043292;28;20041;-77
2022/09/07 07:59:23;;;;;;;5.27;1.87;;;;;;;34.29;35.92;98592.22;5041859;28;20032;-71
2022/09/07 08:01:49;;;;;;;5.22;1.77;;;;;;;35.45;34.04;98578.16;5046645;28;20986;-75
2022/09/07 08:04:14;;;;;;;8.60;2.20;;;;;;;34.35;35.73;98585.94;5050586;28;20075;-76
2022/09/07 08:06:42;;;;;;;6.78;1.90;;;;;;;34.82;35.14;98587.78;5044095;28;20374;-79
2022/09/07 08:09:08;;;;;;;6.13;1.63;;;;;;;34.21;36.23;98589.22;5043813;28;20071;-78
2022/09/07 08:11:34;;;;;;;8.60;2.47;;;;;;;33.71;37.37;98588.00;5035839;28;20391;-78
2022/09/07 08:14:01;;;;;;;5.47;1.80;;;;;;;33.27;37.84;98592.84;5049263;28;20048;-78
2022/09/07 08:16:26;;;;;;;8.82;1.95;;;;;;;32.18;39.97;98595.66;5048372;28;20123;-72
2022/09/07 08:18:52;;;;;;;6.70;1.88;;;;;;;32.61;39.71;98600.59;5044385;28;20791;-73
2022/09/07 08:21:18;;;;;;;6.13;1.63;;;;;;;33.04;38.96;98612.22;5046271;28;20101;-75
2022/09/07 08:23:43;;;;;;;6.72;1.75;;;;;;;33.11;38.55;98606.84;5044836;28;20602;-70
2022/09/07 08:26:09;;;;;;;6.68;1.88;;;;;;;34.64;36.01;98600.66;5036894;28;20120;-71
2022/09/07 08:28:36;;;;;;;12.07;1.48;;;;;;;34.45;36.65;98612.63;5038652;28;20036;-73
2022/09/07 08:31:11;;;;;;;8.18;1.58;;;;;;;34.88;35.33;98597.53;5044759;28;20029;-75
2022/09/07 08:33:37;;;;;;;5.53;1.90;;;;;;;35.33;34.91;98595.19;5046975;28;20098;-74
2022/09/07 08:36:06;;;;;;;4.72;1.40;;;;;;;36.02;33.54;98602.81;5053236;28;20028;-75
2022/09/07 08:38:32;;;;;;;7.45;1.65;;;;;;;33.85;36.86;98609.19;5025452;28;20029;-73
2022/09/07 08:40:59;;;;;;;4.60;1.30;;;;;;;35.95;34.26;98603.53;5039331;28;20032;-72
2022/09/07 08:43:51;;;;;;;5.70;1.50;;;;;;;37.91;31.30;98607.16;5047473;28;20040;-75
2022/09/07 08:46:49;;;;;;;8.68;1.90;;;;;;;37.30;31.97;98609.41;5038255;28;20048;-78
2022/09/07 08:49:28;;;;;;;4.13;1.48;;;;;;;36.40;33.20;98605.44;5013531;28;20106;-75
2022/09/07 08:52:00;;;;;;;10.98;1.67;;;;;;;36.95;32.18;98612.63;5039121;28;20503;-70
2022/09/07 08:54:26;;;;;;;7.57;2.00;;;;;;;37.36;32.20;98598.56;5051630;28;20064;-74
2022/09/07 08:56:55;;;;;;;11.05;1.50;;;;;;;36.32;33.57;98600.91;5050431;28;20033;-75
2022/09/07 08:59:32;;;;;;;7.72;1.50;;;;;;;37.83;31.81;98591.38;5045762;28;20037;-77
2022/09/07 09:01:58;;;;;;;5.38;1.70;;;;;;;37.40;32.10;98602.25;5044622;28;20024;-72
2022/09/07 09:04:26;;;;;;;8.73;1.53;;;;;;;37.75;31.40;98584.84;5052826;28;20074;-75
2022/09/07 09:07:21;;;;;;;10.40;1.58;;;;;;;36.61;33.05;98595.69;5062257;28;20287;-74
2022/09/07 09:10:13;;;;;;;6.40;1.35;;;;;;;35.22;34.60;98602.63;5041671;28;20035;-71
2022/09/07 09:13:00;;;;;;;8.30;1.40;;;;;;;36.10;33.92;98596.94;5038874;28;20025;-73
2022/09/07 09:15:47;;;;;;;8.35;1.50;;;;;;;37.58;31.92;98599.66;5054656;28;20065;-75
2022/09/07 09:18:36;;;;;;;7.18;1.55;;;;;;;36.95;32.06;98602.16;5038315;28;20040;-75
2022/09/07 09:21:05;;;;;;;10.65;1.40;;;;;;;34.77;35.15;98601.28;5042653;28;20025;-76
2022/09/07 09:23:36;;;;;;;4.05;1.33;;;;;;;37.83;31.77;98591.38;5016756;28;21277;-73
2022/09/07 09:26:09;;;;;;;5.00;1.08;;;;;;;38.54;31.04;98596.72;5039474;28;20036;-73
2022/09/07 09:28:35;;;;;;;9.93;1.35;;;;;;;37.61;31.35;98579.09;5039343;28;20044;-73
2022/09/07 09:31:00;;;;;;;9.23;1.30;;;;;;;36.79;32.53;98584.66;5042222;28;20021;-74
2022/09/07 09:33:27;;;;;;;3.78;1.23;;;;;;;35.96;33.89;98577.00;5044318;28;20701;-75
2022/09/07 09:35:59;;;;;;;14.38;1.85;;;;;;;37.16;32.75;98581.88;5045185;28;20130;-71
2022/09/07 09:38:28;;;;;;;5.68;1.48;;;;;;;36.75;32.79;98584.59;5043019;28;20033;-74
2022/09/07 09:40:54;;;;;;;6.38;1.77;;;;;;;37.08;32.51;98559.63;5043199;28;20112;-74
2022/09/07 09:43:23;;;;;;;5.68;1.42;;;;;;;37.04;32.66;98585.75;5042361;28;20112;-74
2022/09/07 09:45:52;;;;;;;8.98;1.50;;;;;;;37.70;32.00;98568.28;5032546;28;20029;-74
2022/09/07 09:48:31;;;;;;;8.10;1.92;;;;;;;35.55;34.88;98580.34;5044410;28;20029;-73
2022/09/07 09:50:58;;;;;;;5.55;1.20;;;;;;;36.28;33.62;98568.22;5041752;28;20029;-71
2022/09/07 09:53:49;;;;;;;8.45;1.08;;;;;;;36.56;33.17;98571.47;5046427;28;20041;-74
2022/09/07 09:56:15;;;;;;;3.95;1.20;;;;;;;38.19;31.49;98563.41;5044866;28;20142;-74
2022/09/07 09:58:44;;;;;;;6.45;1.30;;;;;;;39.22;30.62;98554.56;5046922;28;20481;-75
2022/09/07 10:01:45;;;;;;;7.65;1.30;;;;;;;41.03;28.01;98553.88;5042976;28;20033;-73
2022/09/07 10:04:17;;;;;;;3.42;1.00;;;;;;;37.04;32.17;98560.38;5019432;28;20037;-73
2022/09/07 10:06:52;;;;;;;6.47;1.00;;;;;;;38.82;29.84;98556.47;5034296;28;20045;-72
2022/09/07 10:09:20;;;;;;;4.97;1.13;;;;;;;37.92;31.13;98544.66;5041229;28;20175;-72
2022/09/07 10:11:50;;;;;;;4.25;1.10;;;;;;;40.64;28.21;98538.69;5042294;28;20029;-72
2022/09/07 10:14:27;;;;;;;4.80;1.10;;;;;;;38.15;30.26;98541.59;5045470;28;20490;-72
2022/09/07 10:16:53;;;;;;;6.22;1.20;;;;;;;38.00;31.45;98541.91;5044013;28;20055;-73
2022/09/07 10:19:36;;;;;;;4.72;1.30;;;;;;;37.98;30.19;98536.66;5044149;28;20037;-72
2022/09/07 10:22:18;;;;;;;4.38;0.98;;;;;;;39.69;27.99;98541.28;5045171;28;20481;-73
2022/09/07 10:24:43;;;;;;;3.78;1.00;;;;;;;39.59;28.33;98536.41;5041812;28;20506;-72
2022/09/07 10:27:32;;;;;;;7.43;1.27;;;;;;;39.04;28.89;98528.25;5046690;28;20033;-73
2022/09/07 10:29:59;;;;;;;2.55;0.88;;;;;;;38.70;29.09;98525.72;5051842;22;20053;-74
2022/09/07 10:32:39;;;;;;;5.72;1.20;;;;;;;39.93;27.76;98530.34;5063402;28;20469;-73
2022/09/07 10:35:26;;;;;;;3.58;1.60;;;;;;;39.75;27.63;98513.34;5055398;28;20539;-72
2022/09/07 10:38:13;;;;;;;4.85;0.95;;;;;;;40.27;26.99;98514.53;5068930;28;21498;-77
2022/09/07 10:41:03;;;;;;;3.60;1.10;;;;;;;39.14;28.08;98510.50;5058904;28;20037;-80
2022/09/07 10:43:37;;;;;;;5.90;1.02;;;;;;;39.12;27.81;98519.41;5047983;28;20278;-77
2022/09/07 10:46:31;;;;;;;4.78;1.20;;;;;;;39.67;27.51;98509.75;5051589;28;20036;-76
2022/09/07 10:49:39;;;;;;;3.30;0.80;;;;;;;35.72;32.05;98513.50;5043069;28;20040;-77
2022/09/07 10:52:07;;;;;;;5.32;1.35;;;;;;;32.81;36.57;98505.50;5048396;28;20041;-77
2022/09/07 10:55:02;;;;;;;2.90;1.10;;;;;;;31.49;39.56;98494.69;5048138;28;20025;-76
2022/09/07 10:57:30;;;;;;;3.88;0.75;;;;;;;30.60;40.44;98492.41;5035271;28;20112;-79
2022/09/07 11:00:30;;;;;;;2.53;0.93;;;;;;;32.24;38.30;98496.25;5055844;28;20061;-76
2022/09/07 11:03:11;;;;;;;3.17;0.98;;;;;;;35.93;32.59;98488.47;5045159;28;20057;-77
2022/09/07 11:05:58;;;;;;;3.80;1.10;;;;;;;37.74;30.03;98490.06;5046294;28;20044;-76
2022/09/07 11:08:42;;;;;;;6.95;1.05;;;;;;;38.25;28.70;98494.81;5045044;28;20021;-77
2022/09/07 11:11:24;;;;;;;6.57;1.10;;;;;;;37.11;28.96;98499.59;5054472;28;20029;-71
2022/09/07 11:13:54;;;;;;;2.65;0.95;;;;;;;35.35;32.12;98491.56;5047584;28;20025;-70
2022/09/07 11:16:25;;;;;;;2.10;0.80;;;;;;;37.13;29.93;98480.25;5045187;28;20029;-76
2022/09/07 11:18:53;;;;;;;7.47;0.88;;;;;;;37.90;28.88;98475.66;5045781;28;20016;-76
2022/09/07 11:21:23;;;;;;;4.57;1.02;;;;;;;37.70;29.24;98475.94;5040521;28;20017;-76
2022/09/07 11:24:08;;;;;;;1.48;0.52;;;;;;;39.49;26.96;98460.81;5045678;28;20021;-73
2022/09/07 11:26:42;;;;;;;5.40;0.98;;;;;;;38.91;27.58;98472.09;5047686;28;20036;-76
2022/09/07 11:29:20;;;;;;;11.32;1.10;;;;;;;36.81;29.90;98470.28;5007474;28;1070249;-73
2022/09/07 11:32:01;;;;;;;9.20;0.88;;;;;;;37.79;28.77;98453.00;5051615;28;20028;-76
2022/09/07 11:34:39;;;;;;;3.80;1.02;;;;;;;36.73;29.83;98462.13;5041854;28;20101;-78
2022/09/07 11:37:29;;;;;;;5.57;0.90;;;;;;;36.47;29.97;98461.00;5048616;28;20032;-74
2022/09/07 11:40:11;;;;;;;4.32;0.85;;;;;;;36.36;30.49;98443.97;5056308;28;20028;-73
2022/09/07 11:42:45;;;;;;;6.63;1.00;;;;;;;36.50;29.38;98454.63;5046862;28;20109;-76
2022/09/07 11:45:26;;;;;;;4.22;0.95;;;;;;;36.82;28.83;98454.19;5048232;28;20087;-76
2022/09/07 11:48:20;;;;;;;3.15;0.85;;;;;;;34.43;31.40;98452.09;5049884;28;20100;-76